sensor_id;sensor_type;location;lat;lon;timestamp;temperature;humidity
11748;DHT22;5931;48.832;9.072;2023-08-08T00:02:16;10.70;99.90
11748;DHT22;5931;48.832;9.072;2023-08-08T00:04:42;10.70;99.90
11748;DHT22;5931;48.832;9.072;2023-08-08T00:07:07;10.80;99.90
11748;DHT22;5931;48.832;9.072;2023-08-08T00:09:33;10.90;99.90
11748;DHT22;5931;48.832;9.072;2023-08-08T00:11:59;10.90;99.90
11748;DHT22;5931;48.832;9.072;2023-08-08T00:14:25;11.00;99.90
11748;DHT22;5931;48.832;9.072;2023-08-08T00:16:50;11.10;99.90
11748;DHT22;5931;48.832;9.072;2023-08-08T00:19:16;11.10;99.90
11748;DHT22;5931;48.832;9.072;2023-08-08T00:21:42;11.20;99.90
11748;DHT22;5931;48.832;9.072;2023-08-08T00:24:07;11.30;99.90
11748;DHT22;5931;48.832;9.072;2023-08-08T00:26:33;11.40;99.90
11748;DHT22;5931;48.832;9.072;2023-08-08T00:28:58;11.40;99.90
11748;DHT22;5931;48.832;9.072;2023-08-08T00:31:24;11.50;99.90
11748;DHT22;5931;48.832;9.072;2023-08-08T00:33:51;11.50;99.90
11748;DHT22;5931;48.832;9.072;2023-08-08T00:36:16;11.50;99.90
11748;DHT22;5931;48.832;9.072;2023-08-08T00:38:42;11.50;99.90
11748;DHT22;5931;48.832;9.072;2023-08-08T00:41:07;11.60;99.90
11748;DHT22;5931;48.832;9.072;2023-08-08T00:43:34;11.60;99.90
11748;DHT22;5931;48.832;9.072;2023-08-08T00:45:59;11.60;99.90
11748;DHT22;5931;48.832;9.072;2023-08-08T00:48:25;11.60;99.90
11748;DHT22;5931;48.832;9.072;2023-08-08T00:50:53;11.60;99.90
11748;DHT22;5931;48.832;9.072;2023-08-08T00:53:19;11.60;99.90
11748;DHT22;5931;48.832;9.072;2023-08-08T00:55:46;11.60;99.90
11748;DHT22;5931;48.832;9.072;2023-08-08T00:58:12;11.60;99.90
11748;DHT22;5931;48.832;9.072;2023-08-08T01:00:38;11.70;99.90
11748;DHT22;5931;48.832;9.072;2023-08-08T01:03:04;11.70;99.90
11748;DHT22;5931;48.832;9.072;2023-08-08T01:05:48;11.70;99.90
11748;DHT22;5931;48.832;9.072;2023-08-08T01:08:22;11.80;99.90
11748;DHT22;5931;48.832;9.072;2023-08-08T01:10:49;11.80;99.90
11748;DHT22;5931;48.832;9.072;2023-08-08T01:13:22;11.80;99.90
11748;DHT22;5931;48.832;9.072;2023-08-08T01:15:49;11.90;99.90
11748;DHT22;5931;48.832;9.072;2023-08-08T01:18:16;12.00;99.90
11748;DHT22;5931;48.832;9.072;2023-08-08T01:20:43;12.10;99.90
11748;DHT22;5931;48.832;9.072;2023-08-08T01:25:50;12.20;99.90
11748;DHT22;5931;48.832;9.072;2023-08-08T01:28:21;12.30;99.90
11748;DHT22;5931;48.832;9.072;2023-08-08T01:30:47;12.30;99.90
11748;DHT22;5931;48.832;9.072;2023-08-08T01:33:12;12.50;99.90
11748;DHT22;5931;48.832;9.072;2023-08-08T01:35:44;12.50;99.90
11748;DHT22;5931;48.832;9.072;2023-08-08T01:38:20;12.60;99.90
11748;DHT22;5931;48.832;9.072;2023-08-08T01:40:47;12.70;99.90
11748;DHT22;5931;48.832;9.072;2023-08-08T01:43:15;12.80;99.90
11748;DHT22;5931;48.832;9.072;2023-08-08T01:45:42;12.70;99.90
11748;DHT22;5931;48.832;9.072;2023-08-08T01:48:10;12.70;99.90
11748;DHT22;5931;48.832;9.072;2023-08-08T01:50:36;12.90;99.90
11748;DHT22;5931;48.832;9.072;2023-08-08T01:53:03;13.00;99.90
11748;DHT22;5931;48.832;9.072;2023-08-08T01:55:30;13.10;99.90
11748;DHT22;5931;48.832;9.072;2023-08-08T01:57:56;13.10;99.90
11748;DHT22;5931;48.832;9.072;2023-08-08T02:00:22;13.10;99.90
11748;DHT22;5931;48.832;9.072;2023-08-08T02:02:47;13.10;99.90
11748;DHT22;5931;48.832;9.072;2023-08-08T02:05:13;13.10;99.90
11748;DHT22;5931;48.832;9.072;2023-08-08T02:07:39;13.10;99.90
11748;DHT22;5931;48.832;9.072;2023-08-08T02:10:05;13.10;99.90
11748;DHT22;5931;48.832;9.072;2023-08-08T02:12:30;13.10;99.90
11748;DHT22;5931;48.832;9.072;2023-08-08T02:14:57;13.10;99.90
11748;DHT22;5931;48.832;9.072;2023-08-08T02:17:24;12.90;99.90
11748;DHT22;5931;48.832;9.072;2023-08-08T02:19:50;12.80;99.90
11748;DHT22;5931;48.832;9.072;2023-08-08T02:22:16;12.60;99.90
11748;DHT22;5931;48.832;9.072;2023-08-08T02:24:42;12.40;99.90
11748;DHT22;5931;48.832;9.072;2023-08-08T02:27:08;12.20;99.90
11748;DHT22;5931;48.832;9.072;2023-08-08T02:29:33;12.20;99.90
11748;DHT22;5931;48.832;9.072;2023-08-08T02:31:59;12.10;99.90
11748;DHT22;5931;48.832;9.072;2023-08-08T02:34:25;12.10;99.90
11748;DHT22;5931;48.832;9.072;2023-08-08T02:36:51;12.00;99.90
11748;DHT22;5931;48.832;9.072;2023-08-08T02:39:16;11.90;99.90
11748;DHT22;5931;48.832;9.072;2023-08-08T02:41:42;11.80;99.90
11748;DHT22;5931;48.832;9.072;2023-08-08T02:44:08;11.80;99.90
11748;DHT22;5931;48.832;9.072;2023-08-08T02:46:34;11.70;99.90
11748;DHT22;5931;48.832;9.072;2023-08-08T02:49:00;11.60;99.90
11748;DHT22;5931;48.832;9.072;2023-08-08T02:51:26;11.60;99.90
11748;DHT22;5931;48.832;9.072;2023-08-08T02:53:52;11.60;99.90
11748;DHT22;5931;48.832;9.072;2023-08-08T02:56:18;11.60;99.90
11748;DHT22;5931;48.832;9.072;2023-08-08T02:58:43;11.50;99.90
11748;DHT22;5931;48.832;9.072;2023-08-08T03:01:09;11.40;99.90
11748;DHT22;5931;48.832;9.072;2023-08-08T03:03:36;11.40;99.90
11748;DHT22;5931;48.832;9.072;2023-08-08T03:06:03;11.30;99.90
11748;DHT22;5931;48.832;9.072;2023-08-08T03:08:29;11.30;99.90
11748;DHT22;5931;48.832;9.072;2023-08-08T03:10:56;11.20;99.90
11748;DHT22;5931;48.832;9.072;2023-08-08T03:13:21;11.10;99.90
11748;DHT22;5931;48.832;9.072;2023-08-08T03:15:48;11.00;99.90
11748;DHT22;5931;48.832;9.072;2023-08-08T03:18:14;10.90;99.90
11748;DHT22;5931;48.832;9.072;2023-08-08T03:20:40;10.90;99.90
11748;DHT22;5931;48.832;9.072;2023-08-08T03:23:07;10.90;99.90
11748;DHT22;5931;48.832;9.072;2023-08-08T03:25:33;10.90;99.90
11748;DHT22;5931;48.832;9.072;2023-08-08T03:27:59;10.90;99.90
11748;DHT22;5931;48.832;9.072;2023-08-08T03:30:25;11.00;99.90
11748;DHT22;5931;48.832;9.072;2023-08-08T03:32:51;11.20;99.90
11748;DHT22;5931;48.832;9.072;2023-08-08T03:35:17;11.20;99.90
11748;DHT22;5931;48.832;9.072;2023-08-08T03:37:43;11.30;99.90
11748;DHT22;5931;48.832;9.072;2023-08-08T03:40:09;11.40;99.90
11748;DHT22;5931;48.832;9.072;2023-08-08T03:42:35;11.60;99.90
11748;DHT22;5931;48.832;9.072;2023-08-08T03:45:02;11.70;99.90
11748;DHT22;5931;48.832;9.072;2023-08-08T03:47:28;11.80;99.90
11748;DHT22;5931;48.832;9.072;2023-08-08T03:49:55;11.90;99.90
11748;DHT22;5931;48.832;9.072;2023-08-08T03:52:23;11.90;99.90
11748;DHT22;5931;48.832;9.072;2023-08-08T03:54:50;12.00;99.90
11748;DHT22;5931;48.832;9.072;2023-08-08T03:57:15;12.10;99.90
11748;DHT22;5931;48.832;9.072;2023-08-08T03:59:41;12.20;99.90
11748;DHT22;5931;48.832;9.072;2023-08-08T04:02:07;12.30;99.90
11748;DHT22;5931;48.832;9.072;2023-08-08T04:04:32;12.50;99.90
11748;DHT22;5931;48.832;9.072;2023-08-08T04:06:58;12.50;99.90
11748;DHT22;5931;48.832;9.072;2023-08-08T04:09:24;12.50;99.90
11748;DHT22;5931;48.832;9.072;2023-08-08T04:11:49;12.50;99.90
11748;DHT22;5931;48.832;9.072;2023-08-08T04:14:16;12.50;99.90
11748;DHT22;5931;48.832;9.072;2023-08-08T04:16:42;12.60;99.90
11748;DHT22;5931;48.832;9.072;2023-08-08T04:19:07;12.50;99.90
11748;DHT22;5931;48.832;9.072;2023-08-08T04:21:33;12.40;99.90
11748;DHT22;5931;48.832;9.072;2023-08-08T04:24:00;12.30;99.90
11748;DHT22;5931;48.832;9.072;2023-08-08T04:26:26;12.30;99.90
11748;DHT22;5931;48.832;9.072;2023-08-08T04:28:51;12.30;99.90
11748;DHT22;5931;48.832;9.072;2023-08-08T04:31:17;12.20;99.90
11748;DHT22;5931;48.832;9.072;2023-08-08T04:33:43;12.20;99.90
11748;DHT22;5931;48.832;9.072;2023-08-08T04:36:09;12.10;99.90
11748;DHT22;5931;48.832;9.072;2023-08-08T04:38:34;12.00;99.90
11748;DHT22;5931;48.832;9.072;2023-08-08T04:41:00;12.00;99.90
11748;DHT22;5931;48.832;9.072;2023-08-08T04:43:26;11.90;99.90
11748;DHT22;5931;48.832;9.072;2023-08-08T04:45:53;11.90;99.90
11748;DHT22;5931;48.832;9.072;2023-08-08T04:48:19;11.90;99.90
11748;DHT22;5931;48.832;9.072;2023-08-08T04:50:46;11.90;99.90
11748;DHT22;5931;48.832;9.072;2023-08-08T04:53:12;12.00;99.90
11748;DHT22;5931;48.832;9.072;2023-08-08T04:55:38;12.00;99.90
11748;DHT22;5931;48.832;9.072;2023-08-08T04:58:03;12.20;99.90
11748;DHT22;5931;48.832;9.072;2023-08-08T05:00:29;12.20;99.90
11748;DHT22;5931;48.832;9.072;2023-08-08T05:02:55;12.20;99.90
11748;DHT22;5931;48.832;9.072;2023-08-08T05:05:20;12.20;99.90
11748;DHT22;5931;48.832;9.072;2023-08-08T05:07:46;12.30;99.90
11748;DHT22;5931;48.832;9.072;2023-08-08T05:10:11;12.30;99.90
11748;DHT22;5931;48.832;9.072;2023-08-08T05:12:37;12.30;99.90
11748;DHT22;5931;48.832;9.072;2023-08-08T05:15:04;12.50;99.90
11748;DHT22;5931;48.832;9.072;2023-08-08T05:17:30;12.70;99.90
11748;DHT22;5931;48.832;9.072;2023-08-08T05:19:59;12.80;99.90
11748;DHT22;5931;48.832;9.072;2023-08-08T05:22:24;12.90;99.90
11748;DHT22;5931;48.832;9.072;2023-08-08T05:24:50;13.00;99.90
11748;DHT22;5931;48.832;9.072;2023-08-08T05:27:16;13.20;99.90
11748;DHT22;5931;48.832;9.072;2023-08-08T05:29:41;13.30;99.90
11748;DHT22;5931;48.832;9.072;2023-08-08T05:32:07;13.30;99.90
11748;DHT22;5931;48.832;9.072;2023-08-08T05:34:36;13.40;99.90
11748;DHT22;5931;48.832;9.072;2023-08-08T05:37:02;13.50;99.90
11748;DHT22;5931;48.832;9.072;2023-08-08T05:39:30;13.50;99.90
11748;DHT22;5931;48.832;9.072;2023-08-08T05:41:56;13.50;99.90
11748;DHT22;5931;48.832;9.072;2023-08-08T05:44:22;13.60;99.90
11748;DHT22;5931;48.832;9.072;2023-08-08T05:46:47;13.60;99.90
11748;DHT22;5931;48.832;9.072;2023-08-08T05:49:13;13.70;99.90
11748;DHT22;5931;48.832;9.072;2023-08-08T05:51:40;13.80;99.90
11748;DHT22;5931;48.832;9.072;2023-08-08T05:54:06;13.90;99.90
11748;DHT22;5931;48.832;9.072;2023-08-08T05:56:35;14.00;99.90
11748;DHT22;5931;48.832;9.072;2023-08-08T05:59:01;14.10;99.90
11748;DHT22;5931;48.832;9.072;2023-08-08T06:01:27;14.10;99.90
11748;DHT22;5931;48.832;9.072;2023-08-08T06:03:52;14.30;99.90
11748;DHT22;5931;48.832;9.072;2023-08-08T06:06:18;14.50;99.90
11748;DHT22;5931;48.832;9.072;2023-08-08T06:08:44;14.60;99.90
11748;DHT22;5931;48.832;9.072;2023-08-08T06:11:10;14.70;99.90
11748;DHT22;5931;48.832;9.072;2023-08-08T06:13:36;14.90;99.90
11748;DHT22;5931;48.832;9.072;2023-08-08T06:16:01;14.90;99.90
11748;DHT22;5931;48.832;9.072;2023-08-08T06:18:32;15.10;99.90
11748;DHT22;5931;48.832;9.072;2023-08-08T06:20:58;15.30;99.90
11748;DHT22;5931;48.832;9.072;2023-08-08T06:23:23;15.40;99.90
11748;DHT22;5931;48.832;9.072;2023-08-08T06:25:49;15.60;99.90
11748;DHT22;5931;48.832;9.072;2023-08-08T06:28:14;15.70;99.90
11748;DHT22;5931;48.832;9.072;2023-08-08T06:30:40;15.80;99.90
11748;DHT22;5931;48.832;9.072;2023-08-08T06:33:06;15.90;99.90
11748;DHT22;5931;48.832;9.072;2023-08-08T06:35:32;15.90;99.90
11748;DHT22;5931;48.832;9.072;2023-08-08T06:37:57;16.10;99.90
11748;DHT22;5931;48.832;9.072;2023-08-08T06:40:23;16.10;99.90
11748;DHT22;5931;48.832;9.072;2023-08-08T06:42:49;16.10;99.90
11748;DHT22;5931;48.832;9.072;2023-08-08T06:45:15;16.20;99.90
11748;DHT22;5931;48.832;9.072;2023-08-08T06:47:40;16.10;99.90
11748;DHT22;5931;48.832;9.072;2023-08-08T06:50:06;16.20;99.90
11748;DHT22;5931;48.832;9.072;2023-08-08T06:52:33;16.20;99.90
11748;DHT22;5931;48.832;9.072;2023-08-08T06:54:58;16.30;99.90
11748;DHT22;5931;48.832;9.072;2023-08-08T06:57:24;16.40;99.90
11748;DHT22;5931;48.832;9.072;2023-08-08T06:59:50;16.40;99.90
11748;DHT22;5931;48.832;9.072;2023-08-08T07:02:21;16.50;99.90
11748;DHT22;5931;48.832;9.072;2023-08-08T07:04:47;16.60;99.90
11748;DHT22;5931;48.832;9.072;2023-08-08T07:07:12;16.80;99.90
11748;DHT22;5931;48.832;9.072;2023-08-08T07:09:38;16.90;99.90
11748;DHT22;5931;48.832;9.072;2023-08-08T07:12:04;17.10;99.90
11748;DHT22;5931;48.832;9.072;2023-08-08T07:14:30;17.10;99.90
11748;DHT22;5931;48.832;9.072;2023-08-08T07:16:56;17.10;99.90
11748;DHT22;5931;48.832;9.072;2023-08-08T07:19:22;17.30;99.90
11748;DHT22;5931;48.832;9.072;2023-08-08T07:21:47;17.40;99.90
11748;DHT22;5931;48.832;9.072;2023-08-08T07:24:13;17.50;99.90
11748;DHT22;5931;48.832;9.072;2023-08-08T07:26:39;17.50;99.90
11748;DHT22;5931;48.832;9.072;2023-08-08T07:29:05;17.50;99.90
11748;DHT22;5931;48.832;9.072;2023-08-08T07:31:32;17.60;99.90
11748;DHT22;5931;48.832;9.072;2023-08-08T07:33:58;17.70;99.90
11748;DHT22;5931;48.832;9.072;2023-08-08T07:36:23;17.70;99.90
11748;DHT22;5931;48.832;9.072;2023-08-08T07:38:49;17.90;99.90
11748;DHT22;5931;48.832;9.072;2023-08-08T07:41:15;18.10;99.90
11748;DHT22;5931;48.832;9.072;2023-08-08T07:43:40;18.30;99.90
11748;DHT22;5931;48.832;9.072;2023-08-08T07:46:06;18.70;99.90
11748;DHT22;5931;48.832;9.072;2023-08-08T07:48:32;19.10;99.90
11748;DHT22;5931;48.832;9.072;2023-08-08T07:50:57;19.20;99.90
11748;DHT22;5931;48.832;9.072;2023-08-08T07:53:23;19.40;99.90
11748;DHT22;5931;48.832;9.072;2023-08-08T07:55:49;19.60;99.90
11748;DHT22;5931;48.832;9.072;2023-08-08T07:58:14;19.70;99.90
11748;DHT22;5931;48.832;9.072;2023-08-08T08:00:40;19.40;99.90
11748;DHT22;5931;48.832;9.072;2023-08-08T08:03:06;19.20;99.90
11748;DHT22;5931;48.832;9.072;2023-08-08T08:05:32;19.20;99.90
11748;DHT22;5931;48.832;9.072;2023-08-08T08:08:00;19.20;99.90
11748;DHT22;5931;48.832;9.072;2023-08-08T08:10:26;19.30;99.90
11748;DHT22;5931;48.832;9.072;2023-08-08T08:12:51;19.40;99.90
11748;DHT22;5931;48.832;9.072;2023-08-08T08:15:27;19.40;99.90
11748;DHT22;5931;48.832;9.072;2023-08-08T08:17:53;19.60;99.90
11748;DHT22;5931;48.832;9.072;2023-08-08T08:20:19;19.50;99.90
11748;DHT22;5931;48.832;9.072;2023-08-08T08:22:45;19.60;99.90
11748;DHT22;5931;48.832;9.072;2023-08-08T08:25:10;19.50;99.90
11748;DHT22;5931;48.832;9.072;2023-08-08T08:27:36;19.70;99.90
11748;DHT22;5931;48.832;9.072;2023-08-08T08:30:06;19.80;99.90
11748;DHT22;5931;48.832;9.072;2023-08-08T08:32:37;20.10;99.90
11748;DHT22;5931;48.832;9.072;2023-08-08T08:35:03;20.20;99.90
11748;DHT22;5931;48.832;9.072;2023-08-08T08:37:32;20.10;99.90
11748;DHT22;5931;48.832;9.072;2023-08-08T08:39:58;20.30;99.90
11748;DHT22;5931;48.832;9.072;2023-08-08T08:42:24;20.50;99.90
11748;DHT22;5931;48.832;9.072;2023-08-08T08:44:50;20.70;99.90
11748;DHT22;5931;48.832;9.072;2023-08-08T08:47:20;21.00;99.90
11748;DHT22;5931;48.832;9.072;2023-08-08T08:49:46;21.00;99.90
11748;DHT22;5931;48.832;9.072;2023-08-08T08:52:12;20.90;99.90
11748;DHT22;5931;48.832;9.072;2023-08-08T08:54:39;20.70;99.90
11748;DHT22;5931;48.832;9.072;2023-08-08T08:57:05;20.60;99.90
11748;DHT22;5931;48.832;9.072;2023-08-08T08:59:30;20.40;99.90
11748;DHT22;5931;48.832;9.072;2023-08-08T09:01:56;20.40;99.90
11748;DHT22;5931;48.832;9.072;2023-08-08T09:04:22;20.70;99.90
11748;DHT22;5931;48.832;9.072;2023-08-08T09:06:49;20.60;99.90
11748;DHT22;5931;48.832;9.072;2023-08-08T09:09:15;20.60;99.90
11748;DHT22;5931;48.832;9.072;2023-08-08T09:11:54;20.70;99.90
11748;DHT22;5931;48.832;9.072;2023-08-08T09:14:24;20.80;99.90
11748;DHT22;5931;48.832;9.072;2023-08-08T09:16:51;20.80;99.90
11748;DHT22;5931;48.832;9.072;2023-08-08T09:19:20;20.70;99.90
11748;DHT22;5931;48.832;9.072;2023-08-08T09:21:47;20.50;99.90
11748;DHT22;5931;48.832;9.072;2023-08-08T09:24:13;20.50;99.90
11748;DHT22;5931;48.832;9.072;2023-08-08T09:26:40;20.40;99.90
11748;DHT22;5931;48.832;9.072;2023-08-08T09:29:06;20.60;99.90
11748;DHT22;5931;48.832;9.072;2023-08-08T09:31:34;20.80;99.90
11748;DHT22;5931;48.832;9.072;2023-08-08T09:34:01;20.90;99.90
11748;DHT22;5931;48.832;9.072;2023-08-08T09:36:27;20.90;99.90
11748;DHT22;5931;48.832;9.072;2023-08-08T09:38:54;21.10;99.90
11748;DHT22;5931;48.832;9.072;2023-08-08T09:41:20;20.90;99.90
11748;DHT22;5931;48.832;9.072;2023-08-08T09:43:51;20.90;99.90
11748;DHT22;5931;48.832;9.072;2023-08-08T09:46:19;21.00;99.90
11748;DHT22;5931;48.832;9.072;2023-08-08T09:48:45;21.10;99.90
11748;DHT22;5931;48.832;9.072;2023-08-08T09:51:11;21.00;99.90
11748;DHT22;5931;48.832;9.072;2023-08-08T09:53:38;21.00;99.90
11748;DHT22;5931;48.832;9.072;2023-08-08T09:56:05;20.90;99.90
11748;DHT22;5931;48.832;9.072;2023-08-08T09:58:31;20.60;99.90
11748;DHT22;5931;48.832;9.072;2023-08-08T10:00:57;20.30;99.90
11748;DHT22;5931;48.832;9.072;2023-08-08T10:03:24;20.20;99.90
11748;DHT22;5931;48.832;9.072;2023-08-08T10:05:50;20.40;99.90
11748;DHT22;5931;48.832;9.072;2023-08-08T10:08:16;20.40;99.90
11748;DHT22;5931;48.832;9.072;2023-08-08T10:10:45;20.40;99.90
11748;DHT22;5931;48.832;9.072;2023-08-08T10:13:19;20.50;99.90
11748;DHT22;5931;48.832;9.072;2023-08-08T10:15:45;20.70;99.90
11748;DHT22;5931;48.832;9.072;2023-08-08T10:18:13;20.90;99.90
11748;DHT22;5931;48.832;9.072;2023-08-08T10:20:40;21.00;99.90
11748;DHT22;5931;48.832;9.072;2023-08-08T10:23:08;21.00;99.90
11748;DHT22;5931;48.832;9.072;2023-08-08T10:25:33;21.10;99.90
11748;DHT22;5931;48.832;9.072;2023-08-08T10:28:08;21.00;99.90
11748;DHT22;5931;48.832;9.072;2023-08-08T10:30:46;21.30;99.90
11748;DHT22;5931;48.832;9.072;2023-08-08T10:33:24;21.40;99.90
11748;DHT22;5931;48.832;9.072;2023-08-08T10:36:10;21.30;99.90
11748;DHT22;5931;48.832;9.072;2023-08-08T10:38:42;21.50;99.90
11748;DHT22;5931;48.832;9.072;2023-08-08T10:41:17;21.70;99.90
11748;DHT22;5931;48.832;9.072;2023-08-08T10:43:57;22.00;99.90
11748;DHT22;5931;48.832;9.072;2023-08-08T10:46:41;22.10;99.90
11748;DHT22;5931;48.832;9.072;2023-08-08T10:49:07;22.10;99.90
11748;DHT22;5931;48.832;9.072;2023-08-08T10:51:39;22.30;99.90
11748;DHT22;5931;48.832;9.072;2023-08-08T10:54:19;21.80;99.90
11748;DHT22;5931;48.832;9.072;2023-08-08T10:56:53;21.70;99.90
11748;DHT22;5931;48.832;9.072;2023-08-08T10:59:22;21.70;99.90
11748;DHT22;5931;48.832;9.072;2023-08-08T11:01:49;21.40;99.90
11748;DHT22;5931;48.832;9.072;2023-08-08T11:04:21;21.00;99.90
11748;DHT22;5931;48.832;9.072;2023-08-08T11:06:49;21.30;99.90
11748;DHT22;5931;48.832;9.072;2023-08-08T11:09:16;21.40;99.90
11748;DHT22;5931;48.832;9.072;2023-08-08T11:11:43;21.40;99.90
11748;DHT22;5931;48.832;9.072;2023-08-08T11:14:17;21.50;99.90
11748;DHT22;5931;48.832;9.072;2023-08-08T11:16:44;22.00;99.90
11748;DHT22;5931;48.832;9.072;2023-08-08T11:19:11;22.60;99.90
11748;DHT22;5931;48.832;9.072;2023-08-08T11:21:39;22.60;99.90
11748;DHT22;5931;48.832;9.072;2023-08-08T11:24:05;22.80;99.90
11748;DHT22;5931;48.832;9.072;2023-08-08T11:26:36;23.00;99.90
11748;DHT22;5931;48.832;9.072;2023-08-08T11:29:03;23.00;99.90
11748;DHT22;5931;48.832;9.072;2023-08-08T11:31:29;22.90;99.90
11748;DHT22;5931;48.832;9.072;2023-08-08T11:33:56;23.00;99.90
11748;DHT22;5931;48.832;9.072;2023-08-08T11:36:22;23.40;99.90
11748;DHT22;5931;48.832;9.072;2023-08-08T11:38:49;23.40;99.90
11748;DHT22;5931;48.832;9.072;2023-08-08T11:41:17;22.90;99.90
11748;DHT22;5931;48.832;9.072;2023-08-08T11:43:43;23.10;99.90
11748;DHT22;5931;48.832;9.072;2023-08-08T11:46:13;23.20;99.90
11748;DHT22;5931;48.832;9.072;2023-08-08T11:48:39;23.30;99.90
11748;DHT22;5931;48.832;9.072;2023-08-08T11:51:06;23.40;99.90
11748;DHT22;5931;48.832;9.072;2023-08-08T11:53:32;23.50;99.90
11748;DHT22;5931;48.832;9.072;2023-08-08T11:55:59;23.40;99.90
11748;DHT22;5931;48.832;9.072;2023-08-08T11:58:25;23.90;99.90
11748;DHT22;5931;48.832;9.072;2023-08-08T12:00:52;24.50;99.90
11748;DHT22;5931;48.832;9.072;2023-08-08T12:03:18;24.70;99.90
11748;DHT22;5931;48.832;9.072;2023-08-08T12:05:48;25.00;99.90
11748;DHT22;5931;48.832;9.072;2023-08-08T12:08:20;24.70;99.90
11748;DHT22;5931;48.832;9.072;2023-08-08T12:10:50;24.60;99.90
11748;DHT22;5931;48.832;9.072;2023-08-08T12:13:21;24.50;99.90
11748;DHT22;5931;48.832;9.072;2023-08-08T12:15:47;24.50;99.90
11748;DHT22;5931;48.832;9.072;2023-08-08T12:18:16;24.50;99.90
11748;DHT22;5931;48.832;9.072;2023-08-08T12:20:43;24.20;99.90
11748;DHT22;5931;48.832;9.072;2023-08-08T12:23:10;23.80;99.90
11748;DHT22;5931;48.832;9.072;2023-08-08T12:25:36;23.90;99.90
11748;DHT22;5931;48.832;9.072;2023-08-08T12:28:02;24.00;99.90
11748;DHT22;5931;48.832;9.072;2023-08-08T12:30:28;23.30;99.90
11748;DHT22;5931;48.832;9.072;2023-08-08T12:32:54;23.30;99.90
11748;DHT22;5931;48.832;9.072;2023-08-08T12:35:19;23.30;99.90
11748;DHT22;5931;48.832;9.072;2023-08-08T12:37:46;23.30;99.90
11748;DHT22;5931;48.832;9.072;2023-08-08T12:40:12;23.40;99.90
11748;DHT22;5931;48.832;9.072;2023-08-08T12:42:38;23.50;99.90
11748;DHT22;5931;48.832;9.072;2023-08-08T12:45:05;23.30;99.90
11748;DHT22;5931;48.832;9.072;2023-08-08T12:47:31;23.20;99.90
11748;DHT22;5931;48.832;9.072;2023-08-08T12:49:57;23.10;99.90
11748;DHT22;5931;48.832;9.072;2023-08-08T12:52:23;23.50;99.90
11748;DHT22;5931;48.832;9.072;2023-08-08T12:54:49;23.90;99.90
11748;DHT22;5931;48.832;9.072;2023-08-08T12:57:14;23.40;99.90
11748;DHT22;5931;48.832;9.072;2023-08-08T12:59:40;23.40;99.90
11748;DHT22;5931;48.832;9.072;2023-08-08T13:02:06;23.40;99.90
11748;DHT22;5931;48.832;9.072;2023-08-08T13:04:32;23.30;99.90
11748;DHT22;5931;48.832;9.072;2023-08-08T13:06:58;22.90;99.90
11748;DHT22;5931;48.832;9.072;2023-08-08T13:09:24;22.90;99.90
11748;DHT22;5931;48.832;9.072;2023-08-08T13:11:49;22.70;99.90
11748;DHT22;5931;48.832;9.072;2023-08-08T13:14:15;22.90;99.90
11748;DHT22;5931;48.832;9.072;2023-08-08T13:16:41;23.20;99.90
11748;DHT22;5931;48.832;9.072;2023-08-08T13:19:07;23.40;99.90
11748;DHT22;5931;48.832;9.072;2023-08-08T13:21:33;23.40;99.90
11748;DHT22;5931;48.832;9.072;2023-08-08T13:24:00;23.50;99.90
11748;DHT22;5931;48.832;9.072;2023-08-08T13:26:25;23.70;99.90
11748;DHT22;5931;48.832;9.072;2023-08-08T13:28:51;23.80;99.90
11748;DHT22;5931;48.832;9.072;2023-08-08T13:31:17;23.80;99.90
11748;DHT22;5931;48.832;9.072;2023-08-08T13:33:42;23.70;99.90
11748;DHT22;5931;48.832;9.072;2023-08-08T13:36:08;23.90;99.90
11748;DHT22;5931;48.832;9.072;2023-08-08T13:38:34;24.10;99.90
11748;DHT22;5931;48.832;9.072;2023-08-08T13:41:00;24.10;99.90
11748;DHT22;5931;48.832;9.072;2023-08-08T13:43:26;24.00;99.90
11748;DHT22;5931;48.832;9.072;2023-08-08T13:45:52;23.60;99.90
11748;DHT22;5931;48.832;9.072;2023-08-08T13:48:17;23.70;99.90
11748;DHT22;5931;48.832;9.072;2023-08-08T13:50:43;23.90;99.90
11748;DHT22;5931;48.832;9.072;2023-08-08T13:53:09;24.30;99.90
11748;DHT22;5931;48.832;9.072;2023-08-08T13:55:35;24.60;99.90
11748;DHT22;5931;48.832;9.072;2023-08-08T13:58:06;25.10;99.90
11748;DHT22;5931;48.832;9.072;2023-08-08T14:00:31;25.40;99.90
11748;DHT22;5931;48.832;9.072;2023-08-08T14:02:58;25.40;99.90
11748;DHT22;5931;48.832;9.072;2023-08-08T14:05:24;25.50;99.90
11748;DHT22;5931;48.832;9.072;2023-08-08T14:07:50;25.70;99.90
11748;DHT22;5931;48.832;9.072;2023-08-08T14:10:16;26.20;99.90
11748;DHT22;5931;48.832;9.072;2023-08-08T14:12:41;26.30;99.90
11748;DHT22;5931;48.832;9.072;2023-08-08T14:15:07;26.60;99.90
11748;DHT22;5931;48.832;9.072;2023-08-08T14:17:34;27.40;99.90
11748;DHT22;5931;48.832;9.072;2023-08-08T14:20:00;28.20;99.90
11748;DHT22;5931;48.832;9.072;2023-08-08T14:22:26;28.30;99.00
11748;DHT22;5931;48.832;9.072;2023-08-08T14:24:51;27.10;99.90
11748;DHT22;5931;48.832;9.072;2023-08-08T14:27:17;26.80;99.90
11748;DHT22;5931;48.832;9.072;2023-08-08T14:29:43;25.80;99.90
11748;DHT22;5931;48.832;9.072;2023-08-08T14:32:08;25.10;99.90
11748;DHT22;5931;48.832;9.072;2023-08-08T14:34:34;24.70;99.90
11748;DHT22;5931;48.832;9.072;2023-08-08T14:37:02;24.20;99.90
11748;DHT22;5931;48.832;9.072;2023-08-08T14:39:28;23.60;99.90
11748;DHT22;5931;48.832;9.072;2023-08-08T14:41:54;23.20;99.90
11748;DHT22;5931;48.832;9.072;2023-08-08T14:44:20;22.90;99.90
11748;DHT22;5931;48.832;9.072;2023-08-08T14:46:45;22.70;99.90
11748;DHT22;5931;48.832;9.072;2023-08-08T14:49:11;22.60;99.90
11748;DHT22;5931;48.832;9.072;2023-08-08T14:51:37;22.60;99.90
11748;DHT22;5931;48.832;9.072;2023-08-08T14:54:03;22.40;99.90
11748;DHT22;5931;48.832;9.072;2023-08-08T14:56:29;22.00;99.90
11748;DHT22;5931;48.832;9.072;2023-08-08T14:58:54;21.50;99.90
11748;DHT22;5931;48.832;9.072;2023-08-08T15:01:20;21.50;99.90
11748;DHT22;5931;48.832;9.072;2023-08-08T15:03:46;21.30;99.90
11748;DHT22;5931;48.832;9.072;2023-08-08T15:06:11;21.30;99.90
11748;DHT22;5931;48.832;9.072;2023-08-08T15:08:37;21.40;99.90
11748;DHT22;5931;48.832;9.072;2023-08-08T15:11:03;21.70;99.90
11748;DHT22;5931;48.832;9.072;2023-08-08T15:13:28;23.40;99.90
11748;DHT22;5931;48.832;9.072;2023-08-08T15:15:54;25.40;99.90
11748;DHT22;5931;48.832;9.072;2023-08-08T15:18:20;25.60;99.90
11748;DHT22;5931;48.832;9.072;2023-08-08T15:20:45;25.70;99.90
11748;DHT22;5931;48.832;9.072;2023-08-08T15:23:11;26.40;99.90
11748;DHT22;5931;48.832;9.072;2023-08-08T15:25:40;26.50;99.90
11748;DHT22;5931;48.832;9.072;2023-08-08T15:28:07;26.10;99.90
11748;DHT22;5931;48.832;9.072;2023-08-08T15:30:33;25.40;99.90
11748;DHT22;5931;48.832;9.072;2023-08-08T15:32:58;24.50;99.90
11748;DHT22;5931;48.832;9.072;2023-08-08T15:35:24;23.70;99.90
11748;DHT22;5931;48.832;9.072;2023-08-08T15:37:50;22.80;99.90
11748;DHT22;5931;48.832;9.072;2023-08-08T15:40:16;22.10;99.90
11748;DHT22;5931;48.832;9.072;2023-08-08T15:42:44;21.80;99.90
11748;DHT22;5931;48.832;9.072;2023-08-08T15:45:10;21.40;99.90